Time;durP1;ratioP1;P1;durP2;ratioP2;P2;SDS_P1;SDS_P2;PMS_P1;PMS_P2;Temp;Humidity;BMP_temperature;BMP_pressure;BME280_temperature;BME280_humidity;BME280_pressure;Samples;Min_cycle;Max_cycle;Signal;HPM_P1;HPM_P2
2023/10/26 00:00:25;;;;;;;6.47;5.85;;;;;;;21.10;63.03;99702.50;4898341;29;20053;-57
2023/10/26 00:02:53;;;;;;;6.85;5.30;;;;;;;21.10;63.06;99701.66;4898377;29;20041;-57
2023/10/26 00:05:20;;;;;;;7.03;5.90;;;;;;;21.09;63.15;99692.75;4895035;29;20049;-61
2023/10/26 00:07:48;;;;;;;6.50;5.38;;;;;;;21.09;63.03;99703.53;4893368;29;20053;-61
2023/10/26 00:10:16;;;;;;;7.32;5.88;;;;;;;21.09;62.98;99703.53;4898525;29;20052;-61
2023/10/26 00:12:43;;;;;;;7.30;6.03;;;;;;;21.09;63.07;99689.25;4898261;29;20088;-61
2023/10/26 00:15:11;;;;;;;6.38;5.70;;;;;;;21.08;63.05;99682.19;4895158;29;20060;-61
2023/10/26 00:17:39;;;;;;;6.22;4.85;;;;;;;21.07;63.06;99684.03;4898129;29;20052;-61
2023/10/26 00:20:07;;;;;;;7.82;5.30;;;;;;;21.08;62.97;99687.56;4898128;29;20055;-61
2023/10/26 00:22:37;;;;;;;8.18;5.70;;;;;;;21.07;62.94;99688.59;4897063;29;20052;-61
2023/10/26 00:25:05;;;;;;;6.70;5.70;;;;;;;21.08;62.95;99691.09;4895383;29;20059;-57
2023/10/26 00:27:33;;;;;;;6.57;5.07;;;;;;;21.07;62.94;99694.81;4897944;29;20410;-57
2023/10/26 00:30:00;;;;;;;7.30;5.68;;;;;;;21.07;63.00;99689.41;4898198;29;20056;-56
2023/10/26 00:32:28;;;;;;;8.30;6.45;;;;;;;21.07;63.05;99688.59;4898318;29;20089;-57
2023/10/26 00:34:56;;;;;;;6.53;5.35;;;;;;;21.07;63.07;99677.81;4898703;29;20053;-61
2023/10/26 00:37:23;;;;;;;7.25;6.03;;;;;;;21.07;62.99;99683.19;4898050;29;20052;-62
2023/10/26 00:39:50;;;;;;;6.90;5.78;;;;;;;21.07;63.04;99693.97;4883817;29;20060;-61
2023/10/26 00:42:18;;;;;;;9.82;6.35;;;;;;;21.07;63.04;99696.66;4884681;29;20044;-61
2023/10/26 00:44:46;;;;;;;7.65;6.07;;;;;;;21.07;62.95;99713.63;4900126;29;20068;-61
2023/10/26 00:47:15;;;;;;;6.20;5.35;;;;;;;21.05;62.77;99721.03;4901660;29;20044;-61
2023/10/26 00:49:43;;;;;;;8.48;6.30;;;;;;;21.06;62.94;99719.16;4884772;29;20053;-61
2023/10/26 00:52:11;;;;;;;6.80;5.22;;;;;;;21.05;62.90;99715.66;4883537;29;20134;-61
2023/10/26 00:54:41;;;;;;;8.43;5.60;;;;;;;21.05;62.84;99710.25;4901554;29;20044;-57
2023/10/26 00:57:11;;;;;;;7.10;5.60;;;;;;;21.05;62.87;99712.13;4902088;29;20063;-57
2023/10/26 00:59:39;;;;;;;6.80;5.35;;;;;;;21.05;62.96;99714.81;4901844;29;20075;-57
2023/10/26 01:02:07;;;;;;;6.55;5.88;;;;;;;21.05;62.78;99701.34;4901677;29;20422;-57
2023/10/26 01:04:34;;;;;;;7.07;5.43;;;;;;;21.05;62.88;99704.03;4901610;29;20513;-57
2023/10/26 01:07:02;;;;;;;7.18;5.13;;;;;;;21.04;62.86;99713.13;4901266;29;20048;-57
2023/10/26 01:09:29;;;;;;;6.20;5.43;;;;;;;21.04;63.00;99710.44;4901661;29;20052;-57
2023/10/26 01:11:57;;;;;;;7.15;5.68;;;;;;;21.04;62.88;99703.22;4884039;29;20063;-57
2023/10/26 01:14:24;;;;;;;6.50;5.63;;;;;;;21.05;62.84;99707.56;4901298;29;20053;-62
2023/10/26 01:16:52;;;;;;;6.95;5.57;;;;;;;21.04;62.79;99702.38;4901194;29;20053;-61
2023/10/26 01:19:19;;;;;;;7.00;5.13;;;;;;;21.05;62.87;99704.03;4901103;29;20112;-62
2023/10/26 01:21:51;;;;;;;7.90;6.10;;;;;;;21.04;62.90;99705.91;4901250;29;20044;-62
2023/10/26 01:24:19;;;;;;;6.35;5.32;;;;;;;21.04;62.81;99688.91;4900288;29;20064;-61
2023/10/26 01:26:48;;;;;;;6.32;5.45;;;;;;;21.04;62.78;99695.13;4883826;29;20063;-61
2023/10/26 01:29:19;;;;;;;6.80;5.20;;;;;;;21.04;62.82;99694.28;4899294;29;20056;-61
2023/10/26 01:31:48;;;;;;;6.25;5.20;;;;;;;21.03;62.81;99685.38;4901316;29;20075;-61
2023/10/26 01:34:16;;;;;;;7.07;5.78;;;;;;;21.03;62.76;99696.16;4901189;29;20055;-61
2023/10/26 01:36:43;;;;;;;6.05;5.45;;;;;;;21.04;62.86;99703.22;4900870;29;20447;-61
2023/10/26 01:39:13;;;;;;;9.80;5.70;;;;;;;21.04;62.90;99710.44;4900124;29;20063;-62
2023/10/26 01:41:42;;;;;;;6.07;5.07;;;;;;;21.03;62.85;99703.38;4900493;29;20505;-62
2023/10/26 01:44:09;;;;;;;6.72;5.03;;;;;;;21.03;62.91;99698.84;4894064;29;20052;-57
2023/10/26 01:46:36;;;;;;;7.20;5.47;;;;;;;21.03;62.87;99689.94;4900760;29;20115;-56
2023/10/26 01:49:04;;;;;;;7.60;5.47;;;;;;;21.03;62.88;99679.16;4900593;29;20044;-57
2023/10/26 01:51:32;;;;;;;6.25;5.13;;;;;;;21.02;62.81;99669.41;4897927;29;20063;-57
2023/10/26 01:54:00;;;;;;;7.75;5.55;;;;;;;21.01;62.82;99667.72;4883449;29;20056;-57
2023/10/26 01:56:27;;;;;;;6.97;5.93;;;;;;;21.02;62.84;99678.31;4900669;29;20047;-57
2023/10/26 01:58:54;;;;;;;7.30;5.70;;;;;;;21.01;62.91;99682.00;4898426;29;20071;-57
2023/10/26 02:01:22;;;;;;;7.60;5.72;;;;;;;21.01;62.77;99683.88;4900355;29;20525;-57
2023/10/26 02:03:50;;;;;;;6.95;5.63;;;;;;;21.03;62.83;99698.00;4893282;29;20407;-57
2023/10/26 02:06:17;;;;;;;6.38;5.60;;;;;;;21.01;62.73;99695.47;4883070;29;20526;-57
2023/10/26 02:08:45;;;;;;;6.78;5.50;;;;;;;21.00;62.80;99693.78;4886479;29;20063;-57
2023/10/26 02:11:12;;;;;;;7.82;6.05;;;;;;;21.01;62.80;99700.00;4900097;29;20064;-57
2023/10/26 02:13:40;;;;;;;5.78;4.65;;;;;;;20.99;62.76;99690.28;4895218;29;20056;-61
2023/10/26 02:16:07;;;;;;;6.78;5.30;;;;;;;21.02;62.75;99694.44;4900439;29;20053;-62
2023/10/26 02:18:35;;;;;;;7.05;5.78;;;;;;;20.99;62.73;99698.34;4882781;29;20061;-61
2023/10/26 02:21:02;;;;;;;6.65;5.25;;;;;;;20.99;62.78;99709.09;4899711;29;20056;-61
2023/10/26 02:23:30;;;;;;;6.72;5.90;;;;;;;20.99;62.71;99698.34;4895211;29;20059;-61
2023/10/26 02:25:57;;;;;;;6.25;5.65;;;;;;;20.99;62.71;99705.56;4899755;29;20057;-61
2023/10/26 02:28:25;;;;;;;8.25;6.30;;;;;;;20.99;62.72;99698.34;4882691;29;20060;-61
2023/10/26 02:30:53;;;;;;;5.97;5.28;;;;;;;20.99;62.82;99709.09;4892414;29;20056;-61
2023/10/26 02:33:20;;;;;;;7.03;5.28;;;;;;;21.00;62.61;99696.50;4895587;29;20475;-61
2023/10/26 02:35:48;;;;;;;7.35;6.30;;;;;;;20.99;62.68;99698.34;4899942;29;20044;-62
2023/10/26 02:38:15;;;;;;;7.00;5.88;;;;;;;20.99;62.74;99689.44;4899909;29;20048;-62
2023/10/26 02:40:42;;;;;;;6.95;5.57;;;;;;;20.98;62.63;99687.72;4896454;29;20048;-62
2023/10/26 02:43:10;;;;;;;6.88;5.38;;;;;;;20.98;62.64;99679.66;4890562;29;20049;-61
2023/10/26 02:45:37;;;;;;;6.68;5.05;;;;;;;20.97;62.67;99673.44;4881615;29;20052;-61
2023/10/26 02:48:05;;;;;;;6.70;5.18;;;;;;;20.98;62.62;99668.91;4882330;29;20430;-61
2023/10/26 02:50:35;;;;;;;6.07;5.05;;;;;;;20.97;62.66;99661.84;4896091;29;20107;-61
2023/10/26 02:53:02;;;;;;;6.65;5.13;;;;;;;20.97;62.62;99657.28;4895597;29;20060;-61
2023/10/26 02:55:31;;;;;;;5.90;5.00;;;;;;;20.98;62.56;99660.81;4882773;29;20056;-57
2023/10/26 02:58:01;;;;;;;6.20;5.45;;;;;;;20.98;62.48;99658.13;4882392;29;20418;-58
2023/10/26 03:00:28;;;;;;;6.90;5.22;;;;;;;20.96;62.60;99654.78;4899302;29;20060;-57
2023/10/26 03:02:56;;;;;;;6.60;5.88;;;;;;;20.97;62.49;99656.47;4899559;29;20064;-57
2023/10/26 03:05:23;;;;;;;7.65;5.90;;;;;;;20.96;62.50;99663.69;4897919;29;20052;-61
2023/10/26 03:07:52;;;;;;;7.25;5.78;;;;;;;20.97;62.45;99667.22;4899289;29;20052;-61
2023/10/26 03:10:20;;;;;;;6.55;5.60;;;;;;;20.97;62.69;99665.38;4899399;29;20044;-61
2023/10/26 03:12:48;;;;;;;7.68;6.13;;;;;;;20.96;62.46;99657.47;4899552;29;20059;-61
2023/10/26 03:15:16;;;;;;;7.50;5.53;;;;;;;20.97;62.56;99659.97;4899259;29;20059;-61
2023/10/26 03:17:44;;;;;;;8.20;5.85;;;;;;;20.97;62.58;99669.91;4899160;29;20064;-61
2023/10/26 03:20:12;;;;;;;6.75;5.50;;;;;;;20.96;62.49;99670.94;4881839;29;20068;-61
2023/10/26 03:22:39;;;;;;;6.85;5.28;;;;;;;20.96;62.40;99671.78;4899512;29;20487;-61
2023/10/26 03:25:07;;;;;;;7.80;5.47;;;;;;;20.96;62.60;99673.63;4891091;29;20059;-61
2023/10/26 03:27:34;;;;;;;9.10;6.35;;;;;;;20.96;62.58;99673.63;4898937;29;20059;-61
2023/10/26 03:30:05;;;;;;;7.78;6.63;;;;;;;20.97;62.56;99678.00;4898560;29;20056;-61
2023/10/26 03:32:32;;;;;;;7.68;5.60;;;;;;;20.96;62.62;99687.06;4898702;29;20059;-61
2023/10/26 03:35:00;;;;;;;8.82;6.13;;;;;;;20.96;62.60;99698.66;4898868;29;20048;-57
2023/10/26 03:37:28;;;;;;;7.22;5.82;;;;;;;20.95;62.57;99693.47;4898709;29;20133;-57
2023/10/26 03:39:56;;;;;;;8.63;6.78;;;;;;;20.95;62.56;99697.00;4881808;29;20068;-57
2023/10/26 03:42:23;;;;;;;8.90;6.80;;;;;;;20.96;62.58;99689.75;4898697;29;20056;-58
2023/10/26 03:44:51;;;;;;;9.50;7.32;;;;;;;20.95;62.51;99669.25;4897595;29;20076;-57
2023/10/26 03:47:18;;;;;;;7.45;6.30;;;;;;;20.95;62.48;99686.25;4898853;29;20418;-57
2023/10/26 03:49:46;;;;;;;11.05;7.22;;;;;;;20.95;62.55;99685.41;4898184;29;20053;-57
2023/10/26 03:52:15;;;;;;;9.65;7.35;;;;;;;20.94;62.53;99689.94;4898814;29;20052;-61
2023/10/26 03:54:42;;;;;;;12.07;7.07;;;;;;;20.95;62.48;99688.94;4898679;29;20392;-57
2023/10/26 03:57:10;;;;;;;10.38;7.43;;;;;;;20.95;62.42;99682.72;4898705;29;20044;-57
2023/10/26 03:59:37;;;;;;;8.25;6.72;;;;;;;20.94;62.51;99687.25;4898131;29;20053;-57
2023/10/26 04:02:05;;;;;;;10.63;6.82;;;;;;;20.96;62.63;99679.00;4898610;29;20045;-57
2023/10/26 04:04:32;;;;;;;10.68;7.90;;;;;;;20.94;62.57;99676.50;4896547;29;20052;-61
2023/10/26 04:06:59;;;;;;;10.23;7.53;;;;;;;20.95;62.50;99674.63;4898191;29;20044;-61
2023/10/26 04:09:27;;;;;;;12.32;8.32;;;;;;;20.94;62.50;99665.72;4898249;29;20052;-61
2023/10/26 04:11:55;;;;;;;10.65;8.88;;;;;;;20.94;62.48;99665.72;4898134;29;20064;-61
2023/10/26 04:14:22;;;;;;;12.02;8.10;;;;;;;20.94;62.42;99668.44;4897546;29;20053;-57
2023/10/26 04:16:50;;;;;;;11.18;8.57;;;;;;;20.95;62.40;99666.56;4898288;29;20052;-57
2023/10/26 04:19:17;;;;;;;12.68;9.30;;;;;;;20.95;62.28;99674.63;4898199;29;20056;-57
2023/10/26 04:21:44;;;;;;;12.90;8.32;;;;;;;20.94;62.49;99672.94;4898248;29;20052;-57
2023/10/26 04:24:12;;;;;;;12.60;8.52;;;;;;;20.94;62.49;99664.88;4897858;29;20053;-61
2023/10/26 04:26:41;;;;;;;9.23;7.82;;;;;;;20.94;62.55;99667.56;4898053;29;20056;-62
2023/10/26 04:29:09;;;;;;;11.02;8.25;;;;;;;20.94;62.53;99662.19;4897892;29;20053;-62
2023/10/26 04:31:36;;;;;;;12.15;8.35;;;;;;;20.93;62.61;99680.16;4897982;29;20045;-62
2023/10/26 04:34:03;;;;;;;10.88;8.00;;;;;;;20.92;62.55;99673.13;4898351;29;20045;-57
2023/10/26 04:36:31;;;;;;;14.80;9.73;;;;;;;20.93;62.60;99669.41;4897909;29;20399;-58
2023/10/26 04:38:59;;;;;;;11.35;9.18;;;;;;;20.93;62.53;99673.97;4898100;29;20056;-58
2023/10/26 04:41:26;;;;;;;10.88;8.68;;;;;;;20.93;62.48;99682.03;4898082;29;20048;-58
2023/10/26 04:43:53;;;;;;;12.77;8.50;;;;;;;20.92;62.59;99681.19;4897919;29;20116;-62
2023/10/26 04:46:20;;;;;;;11.32;8.63;;;;;;;20.93;62.51;99682.03;4897902;29;20056;-58
2023/10/26 04:48:48;;;;;;;13.40;9.18;;;;;;;20.93;62.43;99673.97;4898081;29;20093;-57
2023/10/26 04:51:15;;;;;;;9.65;7.97;;;;;;;20.92;62.47;99675.81;4898030;29;20498;-56
2023/10/26 04:53:42;;;;;;;11.98;8.60;;;;;;;20.91;62.53;99679.53;4897886;29;20048;-61
2023/10/26 04:56:11;;;;;;;11.88;9.50;;;;;;;20.92;62.52;99683.03;4897858;29;20416;-62
2023/10/26 04:58:38;;;;;;;11.43;9.00;;;;;;;20.92;62.56;99678.50;4897687;29;20056;-63
2023/10/26 05:01:06;;;;;;;11.70;9.00;;;;;;;20.92;62.65;99664.22;4897532;29;20044;-63
2023/10/26 05:03:33;;;;;;;11.32;8.73;;;;;;;20.90;62.66;99669.78;4897964;29;20056;-55
2023/10/26 05:06:00;;;;;;;10.45;8.27;;;;;;;20.91;62.51;99667.91;4898019;29;20064;-57
2023/10/26 05:08:28;;;;;;;12.77;9.63;;;;;;;20.91;62.62;99668.75;4897580;29;20053;-57
2023/10/26 05:10:55;;;;;;;17.35;10.40;;;;;;;20.91;62.50;99662.53;4898058;29;20487;-58
2023/10/26 05:13:24;;;;;;;12.82;9.13;;;;;;;20.91;62.46;99663.38;4897803;29;20056;-62
2023/10/26 05:15:51;;;;;;;12.50;9.02;;;;;;;20.91;62.64;99665.22;4897581;29;20048;-62
2023/10/26 05:18:19;;;;;;;12.50;9.55;;;;;;;20.92;62.56;99669.59;4897733;29;20063;-62
2023/10/26 05:20:48;;;;;;;11.95;9.32;;;;;;;20.91;62.54;99667.91;4897755;29;20060;-62
2023/10/26 05:23:16;;;;;;;14.32;9.90;;;;;;;20.91;62.50;99662.53;4897838;29;20055;-58
2023/10/26 05:25:43;;;;;;;12.75;10.07;;;;;;;20.90;62.56;99672.47;4882081;29;20507;-58
2023/10/26 05:28:10;;;;;;;14.60;9.20;;;;;;;20.90;62.55;99688.59;4900937;29;20049;-58
2023/10/26 05:30:38;;;;;;;13.15;10.07;;;;;;;20.91;62.55;99684.06;4900987;29;20371;-58
2023/10/26 05:33:05;;;;;;;16.08;10.27;;;;;;;20.91;62.62;99678.69;4901336;29;20055;-61
2023/10/26 05:35:33;;;;;;;14.38;9.95;;;;;;;20.90;62.43;99687.75;4900881;29;20484;-62
2023/10/26 05:38:03;;;;;;;15.20;10.23;;;;;;;20.89;62.49;99686.06;4900766;29;20041;-63
2023/10/26 05:40:31;;;;;;;13.73;9.85;;;;;;;20.89;62.62;99683.38;4900930;29;20126;-62
2023/10/26 05:42:58;;;;;;;13.65;10.45;;;;;;;20.89;62.50;99692.28;4901090;29;20056;-60
2023/10/26 05:45:25;;;;;;;11.30;9.32;;;;;;;20.89;62.47;99696.81;4900362;29;20064;-58
2023/10/26 05:47:53;;;;;;;13.75;10.07;;;;;;;20.89;62.46;99703.03;4899070;29;20523;-58
2023/10/26 05:50:21;;;;;;;13.95;10.00;;;;;;;20.90;62.83;99702.06;4900671;29;20093;-58
2023/10/26 05:52:48;;;;;;;14.45;9.63;;;;;;;20.90;62.45;99703.88;4900835;29;20059;-58
2023/10/26 05:55:16;;;;;;;12.45;10.00;;;;;;;20.89;62.42;99704.91;4900710;29;20097;-62
2023/10/26 05:57:44;;;;;;;15.13;10.40;;;;;;;20.89;62.50;99710.28;4900264;29;20411;-63
2023/10/26 06:00:12;;;;;;;13.38;9.60;;;;;;;20.89;62.50;99702.22;4900433;29;20048;-63
2023/10/26 06:02:39;;;;;;;13.13;9.70;;;;;;;20.89;62.44;99691.44;4900212;29;20419;-63
2023/10/26 06:05:08;;;;;;;12.90;9.57;;;;;;;20.90;62.44;99682.34;4900312;29;20078;-62
2023/10/26 06:07:35;;;;;;;11.43;10.00;;;;;;;20.89;62.69;99688.75;4899842;29;20061;-63
2023/10/26 06:10:05;;;;;;;11.52;9.65;;;;;;;20.89;62.43;99700.34;4899698;29;20067;-63
2023/10/26 06:12:33;;;;;;;11.40;9.32;;;;;;;20.89;62.43;99704.91;4900252;29;20048;-62
2023/10/26 06:15:00;;;;;;;13.15;9.70;;;;;;;20.89;62.43;99702.22;4900251;29;20045;-58
2023/10/26 06:17:27;;;;;;;14.70;10.52;;;;;;;20.89;62.48;99711.13;4900607;29;20049;-58
2023/10/26 06:19:55;;;;;;;14.85;9.63;;;;;;;20.89;62.50;99712.97;4900310;29;20052;-58
2023/10/26 06:22:22;;;;;;;14.80;9.90;;;;;;;20.89;62.46;99711.13;4900100;29;20056;-58
2023/10/26 06:24:49;;;;;;;16.05;11.13;;;;;;;20.89;62.45;99731.81;4899755;29;20060;-58
2023/10/26 06:27:17;;;;;;;13.00;9.65;;;;;;;20.89;62.48;99739.88;4900529;29;20052;-58
2023/10/26 06:29:44;;;;;;;15.27;10.35;;;;;;;20.89;62.55;99739.88;4899766;29;20055;-58
2023/10/26 06:32:12;;;;;;;15.43;10.82;;;;;;;20.89;62.50;99735.31;4899696;29;20423;-58
2023/10/26 06:34:39;;;;;;;13.68;10.27;;;;;;;20.89;62.52;99729.09;4898265;29;20063;-58
2023/10/26 06:37:06;;;;;;;12.68;9.88;;;;;;;20.89;62.47;99738.00;4899121;29;20128;-58
2023/10/26 06:39:34;;;;;;;17.02;10.90;;;;;;;20.89;62.48;99745.25;4899829;29;20044;-58
2023/10/26 06:42:01;;;;;;;15.25;9.75;;;;;;;20.89;62.56;99756.00;4899987;29;20411;-59
2023/10/26 06:44:30;;;;;;;14.32;10.45;;;;;;;20.90;62.50;99752.31;4899339;29;20063;-62
2023/10/26 06:46:57;;;;;;;13.45;10.45;;;;;;;20.90;62.48;99749.63;4899339;29;20495;-62
2023/10/26 06:49:24;;;;;;;14.15;10.38;;;;;;;20.89;62.41;99756.00;4899876;29;20053;-63
2023/10/26 06:51:57;;;;;;;12.93;10.02;;;;;;;20.89;62.28;99759.53;4899661;29;20060;-62
2023/10/26 06:54:24;;;;;;;13.20;10.88;;;;;;;20.90;62.38;99763.06;4899648;29;20060;-62
2023/10/26 06:56:52;;;;;;;14.40;11.63;;;;;;;20.88;62.37;99763.25;4901807;29;20398;-62
2023/10/26 06:59:19;;;;;;;14.88;11.02;;;;;;;20.88;62.42;99754.34;4899477;29;20499;-62
2023/10/26 07:01:46;;;;;;;13.70;9.77;;;;;;;20.88;62.49;99752.47;4899555;29;20075;-62
2023/10/26 07:04:35;;;;;;;12.73;9.80;;;;;;;20.87;62.48;99750.81;4899276;29;20056;-59
2023/10/26 07:07:03;;;;;;;20.45;14.05;;;;;;;20.87;62.39;99745.44;4899174;29;20049;-59
2023/10/26 07:09:30;;;;;;;16.30;12.60;;;;;;;20.86;62.15;99740.19;4899313;29;20056;-59
2023/10/26 07:11:58;;;;;;;20.73;16.02;;;;;;;20.85;62.08;99735.84;4899755;29;20056;-59
2023/10/26 07:14:25;;;;;;;19.13;15.07;;;;;;;20.84;61.90;99736.84;4899313;29;20059;-64
2023/10/26 07:16:53;;;;;;;22.80;17.15;;;;;;;20.82;61.88;99737.00;4898532;29;20451;-65
2023/10/26 07:19:20;;;;;;;25.73;18.35;;;;;;;20.76;61.68;99721.56;4898613;29;20048;-66
2023/10/26 07:21:47;;;;;;;23.50;16.95;;;;;;;20.70;61.78;99725.75;4898256;29;20052;-64
2023/10/26 07:24:15;;;;;;;24.85;19.77;;;;;;;20.67;61.83;99725.25;4897566;29;20067;-65
2023/10/26 07:26:42;;;;;;;26.92;20.65;;;;;;;20.62;61.75;99716.81;4903565;29;20049;-65
2023/10/26 07:29:09;;;;;;;26.15;19.30;;;;;;;20.58;61.68;99710.09;4898639;29;20047;-66
2023/10/26 07:31:37;;;;;;;27.30;20.92;;;;;;;20.54;61.79;99706.06;4898505;29;20048;-66
2023/10/26 07:34:05;;;;;;;27.35;21.77;;;;;;;20.52;61.57;99705.41;4898466;29;20067;-66
2023/10/26 07:36:33;;;;;;;31.83;23.05;;;;;;;20.48;61.55;99710.25;4897990;29;20044;-66
2023/10/26 07:39:01;;;;;;;34.53;24.88;;;;;;;20.44;61.66;99728.53;4898185;29;20487;-66
2023/10/26 07:41:48;;;;;;;32.83;22.75;;;;;;;20.40;61.73;99734.44;4898201;29;20055;-66
2023/10/26 07:44:37;;;;;;;31.55;24.02;;;;;;;20.38;61.75;99737.28;4897628;29;20484;-62
2023/10/26 07:47:08;;;;;;;34.95;25.38;;;;;;;20.34;61.78;99727.03;4897957;29;20044;-62
2023/10/26 07:49:36;;;;;;;37.35;28.20;;;;;;;20.34;61.72;99724.34;4900891;29;20044;-62
2023/10/26 07:52:04;;;;;;;35.22;25.60;;;;;;;20.32;61.77;99720.97;4897699;29;20044;-62
2023/10/26 07:54:31;;;;;;;34.58;25.15;;;;;;;20.30;61.78;99717.63;4898266;29;20048;-61
2023/10/26 07:56:59;;;;;;;38.05;27.20;;;;;;;20.28;61.74;99712.38;4898098;29;20060;-59
2023/10/26 07:59:29;;;;;;;35.90;25.65;;;;;;;20.30;61.80;99709.56;4900155;29;20052;-59
2023/10/26 08:01:57;;;;;;;40.20;26.15;;;;;;;20.30;61.67;99698.81;4897949;29;20052;-59
2023/10/26 08:04:25;;;;;;;34.80;26.00;;;;;;;20.30;61.70;99693.44;4901383;29;20045;-62
2023/10/26 08:06:52;;;;;;;37.67;26.25;;;;;;;20.31;61.66;99706.69;4897775;29;20048;-63
2023/10/26 08:09:19;;;;;;;36.20;25.25;;;;;;;20.32;61.53;99712.91;4897759;29;20059;-63
2023/10/26 08:11:47;;;;;;;35.75;24.30;;;;;;;20.31;61.59;99703.16;4897627;29;20063;-63
2023/10/26 08:14:14;;;;;;;30.95;23.50;;;;;;;20.30;61.50;99706.88;4888074;29;20483;-59
2023/10/26 08:17:02;;;;;;;33.08;23.50;;;;;;;20.30;61.56;99723.00;4897957;29;20056;-59
2023/10/26 08:19:29;;;;;;;31.25;23.85;;;;;;;20.27;61.50;99728.69;4896385;29;20048;-59
2023/10/26 08:21:57;;;;;;;30.42;23.17;;;;;;;20.24;61.40;99729.84;4899598;29;20056;-59
2023/10/26 08:24:24;;;;;;;30.05;22.45;;;;;;;20.22;61.47;99726.50;4901143;29;20061;-65
2023/10/26 08:26:53;;;;;;;27.02;21.38;;;;;;;20.20;61.59;99723.97;4897094;29;20044;-65
2023/10/26 08:29:21;;;;;;;33.22;22.98;;;;;;;20.18;61.67;99734.06;4897474;29;20075;-65
2023/10/26 08:31:56;;;;;;;30.60;22.73;;;;;;;20.19;61.63;99762.59;4887623;29;20059;-65
2023/10/26 08:34:23;;;;;;;32.25;22.42;;;;;;;20.18;61.80;99768.97;4897600;29;20104;-62
2023/10/26 08:36:51;;;;;;;31.20;22.52;;;;;;;20.19;61.83;99775.19;4897624;29;20051;-62
2023/10/26 08:39:39;;;;;;;28.67;22.08;;;;;;;20.20;61.88;99774.19;4896284;29;20052;-62
2023/10/26 08:42:06;;;;;;;31.60;22.13;;;;;;;20.21;61.73;99779.38;4896932;29;20044;-62
2023/10/26 08:44:34;;;;;;;29.70;21.98;;;;;;;20.21;61.87;99786.59;4900554;29;20049;-62
2023/10/26 08:47:05;;;;;;;29.42;22.08;;;;;;;20.22;61.91;99785.63;4897140;29;20052;-62
2023/10/26 08:49:33;;;;;;;29.63;21.63;;;;;;;20.22;61.94;99780.25;4897518;29;20049;-62
2023/10/26 08:52:00;;;;;;;29.67;20.70;;;;;;;20.22;61.87;99782.94;4897161;29;20049;-62
2023/10/26 08:54:28;;;;;;;30.00;20.83;;;;;;;20.21;61.89;99781.22;4896797;29;20048;-62
2023/10/26 08:56:55;;;;;;;27.27;20.40;;;;;;;20.22;61.85;99783.78;4897068;29;20049;-62
2023/10/26 08:59:23;;;;;;;28.90;20.90;;;;;;;20.20;61.87;99766.97;4897626;29;20403;-62
2023/10/26 09:01:52;;;;;;;24.45;18.88;;;;;;;20.21;61.83;99763.25;4901185;29;20053;-62
2023/10/26 09:04:19;;;;;;;26.25;19.90;;;;;;;20.20;61.99;99760.75;4900917;29;20411;-62
2023/10/26 09:06:51;;;;;;;27.08;20.90;;;;;;;20.22;61.72;99767.66;4904149;29;20044;-61
2023/10/26 09:09:19;;;;;;;28.38;19.80;;;;;;;20.22;61.66;99769.50;4891548;29;20151;-59
2023/10/26 09:11:50;;;;;;;27.20;20.02;;;;;;;20.20;61.74;99766.13;4899198;29;20052;-61
2023/10/26 09:14:20;;;;;;;30.05;20.63;;;;;;;20.18;61.66;99763.59;4900933;29;20056;-66
2023/10/26 09:16:49;;;;;;;22.85;19.30;;;;;;;20.17;61.93;99774.50;4900884;29;20044;-61
2023/10/26 09:19:19;;;;;;;29.45;21.08;;;;;;;20.18;61.79;99771.66;4904852;29;20075;-61
2023/10/26 09:21:57;;;;;;;27.42;19.75;;;;;;;20.22;61.75;99786.47;4901130;29;20442;-59
2023/10/26 09:24:31;;;;;;;27.90;19.95;;;;;;;20.23;61.75;99787.31;4903467;29;20419;-59
2023/10/26 09:27:00;;;;;;;28.83;20.73;;;;;;;20.24;61.84;99795.19;4890969;29;20060;-59
2023/10/26 09:29:40;;;;;;;29.77;21.60;;;;;;;20.26;61.81;99781.59;4887886;29;20052;-59
2023/10/26 09:32:09;;;;;;;26.40;19.83;;;;;;;20.25;61.91;99772.72;4900822;29;20564;-59
2023/10/26 09:34:47;;;;;;;27.95;19.55;;;;;;;20.26;61.66;99770.84;4900474;29;20048;-60
2023/10/26 09:37:15;;;;;;;26.95;20.95;;;;;;;20.27;61.88;99780.59;4900191;29;20040;-60
2023/10/26 09:39:42;;;;;;;26.08;20.02;;;;;;;20.27;61.54;99782.44;4900074;29;20075;-61
2023/10/26 09:42:09;;;;;;;26.35;19.70;;;;;;;20.28;61.71;99784.13;4899153;29;20489;-61
2023/10/26 09:44:39;;;;;;;28.02;18.85;;;;;;;20.28;61.78;99784.13;4900203;29;20056;-61
2023/10/26 09:47:06;;;;;;;26.27;18.70;;;;;;;20.28;61.65;99798.41;4900215;29;20037;-61
2023/10/26 09:49:34;;;;;;;28.42;19.70;;;;;;;20.29;61.63;99791.16;4900260;29;20049;-61
2023/10/26 09:52:02;;;;;;;24.55;18.80;;;;;;;20.28;61.66;99792.19;4906299;29;20058;-61
2023/10/26 09:54:35;;;;;;;28.33;18.92;;;;;;;20.28;61.65;99797.56;4900393;29;20051;-61
2023/10/26 09:57:03;;;;;;;23.92;19.30;;;;;;;20.28;61.57;99795.72;4894587;29;20379;-61
2023/10/26 09:59:31;;;;;;;26.63;19.10;;;;;;;20.27;61.69;99794.03;4900426;29;20059;-61
2023/10/26 10:02:12;;;;;;;25.73;18.50;;;;;;;20.29;61.38;99801.91;4899671;29;20048;-61
2023/10/26 10:04:40;;;;;;;24.60;18.35;;;;;;;20.28;61.54;99797.56;4903833;29;20063;-61
2023/10/26 10:07:08;;;;;;;25.63;19.27;;;;;;;20.27;61.40;99798.56;4899608;29;20411;-61
2023/10/26 10:10:03;;;;;;;25.65;18.77;;;;;;;20.27;61.55;99793.19;4902247;29;20049;-61
2023/10/26 10:12:36;;;;;;;25.15;19.17;;;;;;;20.27;61.58;99787.81;4890631;29;20072;-61
2023/10/26 10:15:06;;;;;;;24.13;18.38;;;;;;;20.27;61.46;99794.03;4900515;29;20052;-60
2023/10/26 10:17:46;;;;;;;26.85;19.00;;;;;;;20.27;61.49;99787.81;4899881;29;20044;-60
2023/10/26 10:20:22;;;;;;;25.50;18.25;;;;;;;20.27;61.49;99777.91;4890983;29;20063;-60
2023/10/26 10:22:52;;;;;;;25.27;17.02;;;;;;;20.27;61.57;99777.06;4899664;29;20837;-60
2023/10/26 10:25:23;;;;;;;24.88;19.08;;;;;;;20.27;61.42;99769.84;4901304;29;20049;-60
2023/10/26 10:27:50;;;;;;;23.90;17.63;;;;;;;20.27;61.26;99777.06;4899295;29;20082;-60
2023/10/26 10:30:27;;;;;;;23.92;18.35;;;;;;;20.27;61.49;99793.19;4899683;29;20503;-60
2023/10/26 10:32:56;;;;;;;27.67;18.73;;;;;;;20.27;61.51;99807.47;4899478;29;20055;-60
2023/10/26 10:35:56;;;;;;;26.02;17.55;;;;;;;20.27;61.45;99815.53;4896821;29;20529;-61
2023/10/26 10:38:24;;;;;;;24.52;17.88;;;;;;;20.25;61.45;99823.78;4898932;29;20064;-61
2023/10/26 10:40:54;;;;;;;25.13;18.85;;;;;;;20.27;61.51;99820.06;4899763;29;20052;-61
2023/10/26 10:43:36;;;;;;;26.52;17.40;;;;;;;20.26;61.50;99827.28;4899626;29;20052;-60
2023/10/26 10:46:29;;;;;;;25.05;18.23;;;;;;;20.27;61.54;99836.19;4899513;29;20566;-61
2023/10/26 10:49:00;;;;;;;25.95;19.00;;;;;;;20.24;61.57;99835.50;4898804;29;20375;-61
2023/10/26 10:51:36;;;;;;;23.98;18.10;;;;;;;20.27;61.41;99825.44;4899478;29;20052;-61
2023/10/26 10:54:10;;;;;;;23.10;17.70;;;;;;;20.27;61.44;99820.06;4898782;29;20048;-61
2023/10/26 10:56:57;;;;;;;21.42;16.55;;;;;;;20.27;61.49;99820.06;4902380;29;20045;-61
2023/10/26 10:59:27;;;;;;;23.27;17.45;;;;;;;20.27;61.39;99798.56;4889364;29;20056;-62
2023/10/26 11:02:14;;;;;;;26.13;18.35;;;;;;;20.27;61.40;99787.81;4898900;29;20055;-61
2023/10/26 11:04:58;;;;;;;25.27;17.80;;;;;;;20.27;61.40;99771.69;4900802;29;20052;-60
2023/10/26 11:07:44;;;;;;;21.83;16.27;;;;;;;20.25;61.35;99764.66;4895759;29;20045;-60
2023/10/26 11:10:11;;;;;;;23.42;17.35;;;;;;;20.25;61.18;99770.03;4899103;29;20052;-60
2023/10/26 11:12:39;;;;;;;20.65;16.73;;;;;;;20.26;61.35;99784.28;4898874;29;20051;-60
2023/10/26 11:15:07;;;;;;;26.50;18.38;;;;;;;20.25;61.24;99766.47;4899346;29;20067;-60
2023/10/26 11:17:38;;;;;;;25.95;19.25;;;;;;;20.25;61.22;99770.03;4898736;29;20044;-60
2023/10/26 11:20:41;;;;;;;24.88;18.80;;;;;;;20.23;61.32;99755.88;4898508;29;20440;-60
2023/10/26 11:23:11;;;;;;;26.83;19.63;;;;;;;20.23;61.41;99758.56;4890033;29;20423;-60
2023/10/26 11:25:39;;;;;;;23.95;18.65;;;;;;;20.23;61.29;99750.50;4897814;29;20064;-60
2023/10/26 11:28:08;;;;;;;26.65;19.27;;;;;;;20.24;61.36;99738.75;4898641;29;20051;-60
2023/10/26 11:30:52;;;;;;;28.25;20.88;;;;;;;20.24;61.27;99738.75;4898765;29;20052;-60
2023/10/26 11:33:34;;;;;;;25.23;19.40;;;;;;;20.24;61.18;99749.50;4898719;29;20055;-60